Jiangling, China
Current Conditions -  °F | °C
As of 8:00 AM on Thursday 23 Oct 2014 (Local Time) from ZHHH Reporting Station
Haze Haze  
Wind Chill: 61°   Ceiling: Unl
Heat Index: 61°   Visibility: 1.8mi
Dew Point: 59°   Wind: 9mph
Humidity: 94%   Direction: 120°ESE
Pressure: 30.15"   Gusts: NA
Location:  30.33°N, 112.18°E
Report Text: ZHHH 230000Z 12004MPS 3000 BR NSC 16/15 Q1021 NOSIG
Loading
Personal Weather Stations






























Interactive Weather Map
Tropical Storm Tracking
New forecast layout! Learn more

10-Day Weather Forecast

Advertisements
Track Severe Weather on mobile